sensor_id;sensor_type;location;lat;lon;timestamp;P1;durP1;ratioP1;P2;durP2;ratioP2
5060;SDS011;2549;52.128;21.068;2023-05-29T00:01:30;5.10;;;2.00;;
5060;SDS011;2549;52.128;21.068;2023-05-29T00:04:07;4.00;;;2.40;;
5060;SDS011;2549;52.128;21.068;2023-05-29T00:06:48;3.53;;;2.00;;
5060;SDS011;2549;52.128;21.068;2023-05-29T00:09:26;2.93;;;2.07;;
5060;SDS011;2549;52.128;21.068;2023-05-29T00:12:00;2.40;;;2.20;;
5060;SDS011;2549;52.128;21.068;2023-05-29T00:14:35;2.20;;;2.00;;
5060;SDS011;2549;52.128;21.068;2023-05-29T00:17:11;4.33;;;2.33;;
5060;SDS011;2549;52.128;21.068;2023-05-29T00:19:40;1.80;;;1.70;;
5060;SDS011;2549;52.128;21.068;2023-05-29T00:22:12;8.73;;;2.53;;
5060;SDS011;2549;52.128;21.068;2023-05-29T00:24:47;5.20;;;2.17;;
5060;SDS011;2549;52.128;21.068;2023-05-29T00:27:17;3.47;;;1.93;;
5060;SDS011;2549;52.128;21.068;2023-05-29T00:29:47;6.50;;;2.43;;
5060;SDS011;2549;52.128;21.068;2023-05-29T00:32:17;3.23;;;1.77;;
5060;SDS011;2549;52.128;21.068;2023-05-29T00:35:08;2.17;;;1.90;;
5060;SDS011;2549;52.128;21.068;2023-05-29T00:37:46;6.10;;;2.07;;
5060;SDS011;2549;52.128;21.068;2023-05-29T00:40:27;2.80;;;2.23;;
5060;SDS011;2549;52.128;21.068;2023-05-29T00:42:57;3.90;;;2.40;;
5060;SDS011;2549;52.128;21.068;2023-05-29T00:45:34;8.83;;;2.30;;
5060;SDS011;2549;52.128;21.068;2023-05-29T00:48:10;3.30;;;2.07;;
5060;SDS011;2549;52.128;21.068;2023-05-29T00:50:53;2.53;;;2.30;;
5060;SDS011;2549;52.128;21.068;2023-05-29T00:53:23;2.60;;;2.33;;
5060;SDS011;2549;52.128;21.068;2023-05-29T00:55:53;5.70;;;2.50;;
5060;SDS011;2549;52.128;21.068;2023-05-29T00:58:26;5.07;;;2.30;;
5060;SDS011;2549;52.128;21.068;2023-05-29T01:01:07;2.77;;;2.10;;
5060;SDS011;2549;52.128;21.068;2023-05-29T01:03:45;7.40;;;2.43;;
5060;SDS011;2549;52.128;21.068;2023-05-29T01:06:30;4.67;;;2.23;;
5060;SDS011;2549;52.128;21.068;2023-05-29T01:09:02;6.70;;;2.93;;
5060;SDS011;2549;52.128;21.068;2023-05-29T01:14:17;2.30;;;2.10;;
5060;SDS011;2549;52.128;21.068;2023-05-29T01:20:22;4.40;;;2.17;;
5060;SDS011;2549;52.128;21.068;2023-05-29T01:28:49;5.53;;;2.50;;
5060;SDS011;2549;52.128;21.068;2023-05-29T01:31:25;4.00;;;2.37;;
5060;SDS011;2549;52.128;21.068;2023-05-29T01:33:57;6.20;;;2.30;;
5060;SDS011;2549;52.128;21.068;2023-05-29T01:36:33;3.67;;;2.17;;
5060;SDS011;2549;52.128;21.068;2023-05-29T01:39:08;9.30;;;2.50;;
5060;SDS011;2549;52.128;21.068;2023-05-29T01:41:47;4.03;;;3.00;;
5060;SDS011;2549;52.128;21.068;2023-05-29T01:44:25;8.40;;;2.37;;
5060;SDS011;2549;52.128;21.068;2023-05-29T01:46:54;6.23;;;2.77;;
5060;SDS011;2549;52.128;21.068;2023-05-29T01:49:28;5.60;;;2.57;;
5060;SDS011;2549;52.128;21.068;2023-05-29T01:52:21;4.50;;;2.57;;
5060;SDS011;2549;52.128;21.068;2023-05-29T01:54:48;5.43;;;2.67;;
5060;SDS011;2549;52.128;21.068;2023-05-29T01:57:22;3.53;;;2.87;;
5060;SDS011;2549;52.128;21.068;2023-05-29T01:59:55;8.00;;;3.30;;
5060;SDS011;2549;52.128;21.068;2023-05-29T02:02:39;3.57;;;2.60;;
5060;SDS011;2549;52.128;21.068;2023-05-29T02:05:10;4.63;;;2.90;;
5060;SDS011;2549;52.128;21.068;2023-05-29T02:07:43;2.90;;;2.27;;
5060;SDS011;2549;52.128;21.068;2023-05-29T02:10:19;4.53;;;2.50;;
5060;SDS011;2549;52.128;21.068;2023-05-29T02:12:52;7.00;;;2.53;;
5060;SDS011;2549;52.128;21.068;2023-05-29T02:18:21;8.80;;;3.07;;
5060;SDS011;2549;52.128;21.068;2023-05-29T02:20:48;3.30;;;2.90;;
5060;SDS011;2549;52.128;21.068;2023-05-29T02:23:15;4.10;;;2.63;;
5060;SDS011;2549;52.128;21.068;2023-05-29T02:25:42;3.37;;;2.63;;
5060;SDS011;2549;52.128;21.068;2023-05-29T02:28:09;5.40;;;2.67;;
5060;SDS011;2549;52.128;21.068;2023-05-29T02:30:36;5.10;;;2.67;;
5060;SDS011;2549;52.128;21.068;2023-05-29T02:33:03;10.33;;;3.00;;
5060;SDS011;2549;52.128;21.068;2023-05-29T02:35:30;6.47;;;3.70;;
5060;SDS011;2549;52.128;21.068;2023-05-29T02:37:56;5.13;;;3.47;;
5060;SDS011;2549;52.128;21.068;2023-05-29T02:40:23;6.60;;;3.50;;
5060;SDS011;2549;52.128;21.068;2023-05-29T02:42:50;8.57;;;4.30;;
5060;SDS011;2549;52.128;21.068;2023-05-29T02:45:17;7.10;;;3.40;;
5060;SDS011;2549;52.128;21.068;2023-05-29T02:47:44;6.00;;;3.43;;
5060;SDS011;2549;52.128;21.068;2023-05-29T02:50:11;7.90;;;3.60;;
5060;SDS011;2549;52.128;21.068;2023-05-29T02:52:40;6.80;;;3.70;;
5060;SDS011;2549;52.128;21.068;2023-05-29T02:55:07;5.50;;;4.10;;
5060;SDS011;2549;52.128;21.068;2023-05-29T02:57:35;13.37;;;4.87;;
5060;SDS011;2549;52.128;21.068;2023-05-29T03:00:02;9.47;;;3.73;;
5060;SDS011;2549;52.128;21.068;2023-05-29T03:02:33;12.73;;;4.47;;
5060;SDS011;2549;52.128;21.068;2023-05-29T03:05:03;6.57;;;3.60;;
5060;SDS011;2549;52.128;21.068;2023-05-29T03:07:30;10.63;;;3.87;;
5060;SDS011;2549;52.128;21.068;2023-05-29T03:09:57;7.93;;;4.37;;
5060;SDS011;2549;52.128;21.068;2023-05-29T03:12:25;12.20;;;4.47;;
5060;SDS011;2549;52.128;21.068;2023-05-29T03:14:54;6.43;;;3.57;;
5060;SDS011;2549;52.128;21.068;2023-05-29T03:17:22;8.23;;;3.90;;
5060;SDS011;2549;52.128;21.068;2023-05-29T03:19:49;8.10;;;3.83;;
5060;SDS011;2549;52.128;21.068;2023-05-29T03:22:17;14.57;;;4.43;;
5060;SDS011;2549;52.128;21.068;2023-05-29T03:24:44;11.77;;;4.10;;
5060;SDS011;2549;52.128;21.068;2023-05-29T03:27:11;8.23;;;4.50;;
5060;SDS011;2549;52.128;21.068;2023-05-29T03:29:38;11.60;;;4.70;;
5060;SDS011;2549;52.128;21.068;2023-05-29T03:32:05;7.10;;;4.07;;
5060;SDS011;2549;52.128;21.068;2023-05-29T03:34:32;11.03;;;4.60;;
5060;SDS011;2549;52.128;21.068;2023-05-29T03:36:59;10.00;;;4.90;;
5060;SDS011;2549;52.128;21.068;2023-05-29T03:39:26;6.93;;;4.53;;
5060;SDS011;2549;52.128;21.068;2023-05-29T03:41:52;6.77;;;4.30;;
5060;SDS011;2549;52.128;21.068;2023-05-29T03:44:19;11.00;;;4.80;;
5060;SDS011;2549;52.128;21.068;2023-05-29T03:46:46;7.47;;;4.70;;
5060;SDS011;2549;52.128;21.068;2023-05-29T03:49:13;11.10;;;5.57;;
5060;SDS011;2549;52.128;21.068;2023-05-29T03:51:40;6.03;;;4.30;;
5060;SDS011;2549;52.128;21.068;2023-05-29T03:54:07;5.00;;;4.50;;
5060;SDS011;2549;52.128;21.068;2023-05-29T03:56:34;9.00;;;4.37;;
5060;SDS011;2549;52.128;21.068;2023-05-29T03:59:02;5.77;;;4.60;;
5060;SDS011;2549;52.128;21.068;2023-05-29T04:01:29;6.13;;;4.40;;
5060;SDS011;2549;52.128;21.068;2023-05-29T04:03:56;6.93;;;4.73;;
5060;SDS011;2549;52.128;21.068;2023-05-29T04:06:23;7.33;;;5.13;;
5060;SDS011;2549;52.128;21.068;2023-05-29T04:08:50;9.30;;;5.60;;
5060;SDS011;2549;52.128;21.068;2023-05-29T04:11:16;6.90;;;5.17;;
5060;SDS011;2549;52.128;21.068;2023-05-29T04:13:47;9.80;;;4.87;;
5060;SDS011;2549;52.128;21.068;2023-05-29T04:16:14;8.33;;;4.60;;
5060;SDS011;2549;52.128;21.068;2023-05-29T04:18:41;15.63;;;6.03;;
5060;SDS011;2549;52.128;21.068;2023-05-29T04:21:08;11.87;;;5.30;;
5060;SDS011;2549;52.128;21.068;2023-05-29T04:23:36;14.87;;;5.57;;
5060;SDS011;2549;52.128;21.068;2023-05-29T04:26:03;9.03;;;5.00;;
5060;SDS011;2549;52.128;21.068;2023-05-29T04:28:32;7.40;;;5.30;;
5060;SDS011;2549;52.128;21.068;2023-05-29T04:30:59;7.77;;;4.60;;
5060;SDS011;2549;52.128;21.068;2023-05-29T04:33:26;12.40;;;5.77;;
5060;SDS011;2549;52.128;21.068;2023-05-29T04:35:55;13.47;;;5.33;;
5060;SDS011;2549;52.128;21.068;2023-05-29T04:38:22;11.53;;;6.60;;
5060;SDS011;2549;52.128;21.068;2023-05-29T04:40:52;11.40;;;5.67;;
5060;SDS011;2549;52.128;21.068;2023-05-29T04:43:24;14.53;;;5.83;;
5060;SDS011;2549;52.128;21.068;2023-05-29T04:45:54;8.53;;;5.60;;
5060;SDS011;2549;52.128;21.068;2023-05-29T04:48:21;11.53;;;5.40;;
5060;SDS011;2549;52.128;21.068;2023-05-29T04:50:48;9.47;;;5.10;;
5060;SDS011;2549;52.128;21.068;2023-05-29T04:53:15;11.30;;;5.23;;
5060;SDS011;2549;52.128;21.068;2023-05-29T04:55:42;7.13;;;4.87;;
5060;SDS011;2549;52.128;21.068;2023-05-29T04:58:09;24.33;;;6.20;;
5060;SDS011;2549;52.128;21.068;2023-05-29T05:00:38;7.97;;;4.60;;
5060;SDS011;2549;52.128;21.068;2023-05-29T05:03:05;26.37;;;4.80;;
5060;SDS011;2549;52.128;21.068;2023-05-29T05:05:32;18.07;;;4.57;;
5060;SDS011;2549;52.128;21.068;2023-05-29T05:07:59;13.47;;;5.23;;
5060;SDS011;2549;52.128;21.068;2023-05-29T05:10:26;13.17;;;5.90;;
5060;SDS011;2549;52.128;21.068;2023-05-29T05:12:53;13.60;;;4.43;;
5060;SDS011;2549;52.128;21.068;2023-05-29T05:15:20;21.03;;;5.60;;
5060;SDS011;2549;52.128;21.068;2023-05-29T05:17:47;7.00;;;3.93;;
5060;SDS011;2549;52.128;21.068;2023-05-29T05:20:14;13.73;;;3.93;;
5060;SDS011;2549;52.128;21.068;2023-05-29T05:22:41;8.00;;;4.83;;
5060;SDS011;2549;52.128;21.068;2023-05-29T05:25:08;9.83;;;3.63;;
5060;SDS011;2549;52.128;21.068;2023-05-29T05:27:35;10.20;;;4.60;;
5060;SDS011;2549;52.128;21.068;2023-05-29T05:30:03;13.53;;;4.73;;
5060;SDS011;2549;52.128;21.068;2023-05-29T05:32:30;8.67;;;3.53;;
5060;SDS011;2549;52.128;21.068;2023-05-29T05:34:57;13.60;;;5.33;;
5060;SDS011;2549;52.128;21.068;2023-05-29T05:37:24;15.27;;;4.30;;
5060;SDS011;2549;52.128;21.068;2023-05-29T05:39:52;8.13;;;4.03;;
5060;SDS011;2549;52.128;21.068;2023-05-29T05:42:19;10.07;;;4.13;;
5060;SDS011;2549;52.128;21.068;2023-05-29T05:44:46;11.70;;;3.83;;
5060;SDS011;2549;52.128;21.068;2023-05-29T05:47:14;9.73;;;3.77;;
5060;SDS011;2549;52.128;21.068;2023-05-29T05:49:41;6.43;;;3.00;;
5060;SDS011;2549;52.128;21.068;2023-05-29T05:52:09;12.83;;;4.67;;
5060;SDS011;2549;52.128;21.068;2023-05-29T05:54:36;14.30;;;3.97;;
5060;SDS011;2549;52.128;21.068;2023-05-29T05:57:03;18.43;;;4.80;;
5060;SDS011;2549;52.128;21.068;2023-05-29T05:59:30;14.20;;;3.70;;
5060;SDS011;2549;52.128;21.068;2023-05-29T06:01:57;17.07;;;4.57;;
5060;SDS011;2549;52.128;21.068;2023-05-29T06:04:24;9.07;;;3.87;;
5060;SDS011;2549;52.128;21.068;2023-05-29T06:06:51;20.73;;;4.50;;
5060;SDS011;2549;52.128;21.068;2023-05-29T06:09:18;10.50;;;3.60;;
5060;SDS011;2549;52.128;21.068;2023-05-29T06:11:48;13.63;;;4.37;;
5060;SDS011;2549;52.128;21.068;2023-05-29T06:14:15;18.87;;;5.00;;
5060;SDS011;2549;52.128;21.068;2023-05-29T06:16:42;8.60;;;4.27;;
5060;SDS011;2549;52.128;21.068;2023-05-29T06:19:09;7.47;;;3.87;;
5060;SDS011;2549;52.128;21.068;2023-05-29T06:21:36;5.60;;;3.47;;
5060;SDS011;2549;52.128;21.068;2023-05-29T06:24:03;14.33;;;4.10;;
5060;SDS011;2549;52.128;21.068;2023-05-29T06:26:30;6.50;;;3.80;;
5060;SDS011;2549;52.128;21.068;2023-05-29T06:28:57;9.30;;;3.00;;
5060;SDS011;2549;52.128;21.068;2023-05-29T06:31:24;13.53;;;2.50;;
5060;SDS011;2549;52.128;21.068;2023-05-29T06:33:51;2.93;;;1.93;;
5060;SDS011;2549;52.128;21.068;2023-05-29T06:36:18;8.77;;;2.30;;
5060;SDS011;2549;52.128;21.068;2023-05-29T06:38:46;6.83;;;2.40;;
5060;SDS011;2549;52.128;21.068;2023-05-29T06:41:14;4.73;;;1.77;;
5060;SDS011;2549;52.128;21.068;2023-05-29T06:43:41;16.03;;;2.27;;
5060;SDS011;2549;52.128;21.068;2023-05-29T06:46:10;5.70;;;2.30;;
5060;SDS011;2549;52.128;21.068;2023-05-29T06:48:37;4.20;;;2.20;;
5060;SDS011;2549;52.128;21.068;2023-05-29T06:51:04;5.30;;;1.90;;
5060;SDS011;2549;52.128;21.068;2023-05-29T06:53:38;9.00;;;2.90;;
5060;SDS011;2549;52.128;21.068;2023-05-29T06:56:05;8.30;;;3.20;;
5060;SDS011;2549;52.128;21.068;2023-05-29T06:58:33;11.37;;;3.00;;
5060;SDS011;2549;52.128;21.068;2023-05-29T07:01:00;4.67;;;2.70;;
5060;SDS011;2549;52.128;21.068;2023-05-29T07:03:32;6.53;;;2.30;;
5060;SDS011;2549;52.128;21.068;2023-05-29T07:05:59;6.53;;;2.40;;
5060;SDS011;2549;52.128;21.068;2023-05-29T07:08:27;2.87;;;2.03;;
5060;SDS011;2549;52.128;21.068;2023-05-29T07:10:54;9.57;;;2.70;;
5060;SDS011;2549;52.128;21.068;2023-05-29T07:13:22;8.33;;;2.13;;
5060;SDS011;2549;52.128;21.068;2023-05-29T07:15:50;3.27;;;1.37;;
5060;SDS011;2549;52.128;21.068;2023-05-29T07:18:17;5.30;;;1.57;;
5060;SDS011;2549;52.128;21.068;2023-05-29T07:20:44;6.27;;;1.83;;
5060;SDS011;2549;52.128;21.068;2023-05-29T07:23:11;1.80;;;1.70;;
5060;SDS011;2549;52.128;21.068;2023-05-29T07:25:38;11.17;;;2.40;;
5060;SDS011;2549;52.128;21.068;2023-05-29T07:28:05;5.10;;;1.70;;
5060;SDS011;2549;52.128;21.068;2023-05-29T07:30:47;6.83;;;1.57;;
5060;SDS011;2549;52.128;21.068;2023-05-29T07:33:14;2.50;;;1.70;;
5060;SDS011;2549;52.128;21.068;2023-05-29T07:35:41;5.23;;;1.40;;
5060;SDS011;2549;52.128;21.068;2023-05-29T07:38:07;2.47;;;1.43;;
5060;SDS011;2549;52.128;21.068;2023-05-29T07:40:34;5.90;;;1.10;;
5060;SDS011;2549;52.128;21.068;2023-05-29T07:43:01;3.50;;;1.70;;
5060;SDS011;2549;52.128;21.068;2023-05-29T07:45:28;3.40;;;1.60;;
5060;SDS011;2549;52.128;21.068;2023-05-29T07:47:55;1.27;;;1.17;;
5060;SDS011;2549;52.128;21.068;2023-05-29T07:50:22;12.87;;;1.20;;
5060;SDS011;2549;52.128;21.068;2023-05-29T07:52:49;8.67;;;2.43;;
5060;SDS011;2549;52.128;21.068;2023-05-29T07:55:16;2.30;;;1.07;;
5060;SDS011;2549;52.128;21.068;2023-05-29T07:57:43;5.30;;;1.30;;
5060;SDS011;2549;52.128;21.068;2023-05-29T08:00:10;5.67;;;1.23;;
5060;SDS011;2549;52.128;21.068;2023-05-29T08:02:40;4.13;;;1.30;;
5060;SDS011;2549;52.128;21.068;2023-05-29T08:05:08;3.60;;;1.33;;
5060;SDS011;2549;52.128;21.068;2023-05-29T08:07:36;2.97;;;1.00;;
5060;SDS011;2549;52.128;21.068;2023-05-29T08:10:03;1.10;;;1.00;;
5060;SDS011;2549;52.128;21.068;2023-05-29T08:12:31;4.33;;;1.50;;
5060;SDS011;2549;52.128;21.068;2023-05-29T08:15:01;2.73;;;1.40;;
5060;SDS011;2549;52.128;21.068;2023-05-29T08:17:29;15.63;;;1.37;;
5060;SDS011;2549;52.128;21.068;2023-05-29T08:19:56;3.40;;;1.30;;
5060;SDS011;2549;52.128;21.068;2023-05-29T08:22:27;1.90;;;1.50;;
5060;SDS011;2549;52.128;21.068;2023-05-29T08:24:56;3.13;;;1.40;;
5060;SDS011;2549;52.128;21.068;2023-05-29T08:27:23;2.00;;;0.90;;
5060;SDS011;2549;52.128;21.068;2023-05-29T08:29:50;4.73;;;0.90;;
5060;SDS011;2549;52.128;21.068;2023-05-29T08:32:17;1.40;;;1.27;;
5060;SDS011;2549;52.128;21.068;2023-05-29T08:34:43;4.17;;;1.27;;
5060;SDS011;2549;52.128;21.068;2023-05-29T08:37:12;1.53;;;1.10;;
5060;SDS011;2549;52.128;21.068;2023-05-29T08:39:39;1.20;;;1.10;;
5060;SDS011;2549;52.128;21.068;2023-05-29T08:42:12;7.80;;;1.30;;
5060;SDS011;2549;52.128;21.068;2023-05-29T08:44:46;6.53;;;1.30;;
5060;SDS011;2549;52.128;21.068;2023-05-29T08:47:17;1.93;;;1.07;;
5060;SDS011;2549;52.128;21.068;2023-05-29T08:49:52;1.00;;;1.00;;
5060;SDS011;2549;52.128;21.068;2023-05-29T08:52:22;4.63;;;1.40;;
5060;SDS011;2549;52.128;21.068;2023-05-29T08:54:52;6.90;;;1.50;;
5060;SDS011;2549;52.128;21.068;2023-05-29T08:57:20;14.90;;;1.90;;
5060;SDS011;2549;52.128;21.068;2023-05-29T08:59:48;5.47;;;1.70;;
5060;SDS011;2549;52.128;21.068;2023-05-29T09:02:18;2.17;;;1.20;;
5060;SDS011;2549;52.128;21.068;2023-05-29T09:04:46;1.53;;;1.43;;
5060;SDS011;2549;52.128;21.068;2023-05-29T09:07:16;1.93;;;1.00;;
5060;SDS011;2549;52.128;21.068;2023-05-29T09:09:48;1.33;;;1.23;;
5060;SDS011;2549;52.128;21.068;2023-05-29T09:12:15;1.27;;;0.90;;
5060;SDS011;2549;52.128;21.068;2023-05-29T09:14:43;4.20;;;1.63;;
5060;SDS011;2549;52.128;21.068;2023-05-29T09:17:12;12.00;;;1.80;;
5060;SDS011;2549;52.128;21.068;2023-05-29T09:19:39;1.80;;;1.50;;
5060;SDS011;2549;52.128;21.068;2023-05-29T09:22:07;3.77;;;1.50;;
5060;SDS011;2549;52.128;21.068;2023-05-29T09:24:42;1.73;;;1.60;;
5060;SDS011;2549;52.128;21.068;2023-05-29T09:27:14;1.80;;;1.50;;
5060;SDS011;2549;52.128;21.068;2023-05-29T09:29:41;5.87;;;1.27;;
5060;SDS011;2549;52.128;21.068;2023-05-29T09:32:09;2.83;;;2.10;;
5060;SDS011;2549;52.128;21.068;2023-05-29T09:34:43;7.80;;;2.23;;
5060;SDS011;2549;52.128;21.068;2023-05-29T09:37:11;1.57;;;1.43;;
5060;SDS011;2549;52.128;21.068;2023-05-29T09:42:11;4.90;;;2.00;;
5060;SDS011;2549;52.128;21.068;2023-05-29T09:44:39;1.77;;;1.60;;
5060;SDS011;2549;52.128;21.068;2023-05-29T09:47:07;1.60;;;1.50;;
5060;SDS011;2549;52.128;21.068;2023-05-29T09:49:34;9.33;;;1.87;;
5060;SDS011;2549;52.128;21.068;2023-05-29T09:52:06;3.33;;;2.10;;
5060;SDS011;2549;52.128;21.068;2023-05-29T09:54:34;4.57;;;1.60;;
5060;SDS011;2549;52.128;21.068;2023-05-29T09:57:02;5.63;;;1.77;;
5060;SDS011;2549;52.128;21.068;2023-05-29T09:59:31;7.60;;;1.50;;
5060;SDS011;2549;52.128;21.068;2023-05-29T10:02:00;5.43;;;1.63;;
5060;SDS011;2549;52.128;21.068;2023-05-29T10:04:30;2.27;;;1.30;;
5060;SDS011;2549;52.128;21.068;2023-05-29T10:07:04;6.33;;;1.53;;
5060;SDS011;2549;52.128;21.068;2023-05-29T10:09:38;4.97;;;1.50;;
5060;SDS011;2549;52.128;21.068;2023-05-29T10:12:08;6.77;;;1.73;;
5060;SDS011;2549;52.128;21.068;2023-05-29T10:14:37;2.70;;;1.67;;
5060;SDS011;2549;52.128;21.068;2023-05-29T10:17:07;2.00;;;1.47;;
5060;SDS011;2549;52.128;21.068;2023-05-29T10:19:36;8.60;;;1.53;;
5060;SDS011;2549;52.128;21.068;2023-05-29T10:22:04;1.83;;;1.70;;
5060;SDS011;2549;52.128;21.068;2023-05-29T10:24:32;4.83;;;1.40;;
5060;SDS011;2549;52.128;21.068;2023-05-29T10:27:03;5.23;;;1.30;;
5060;SDS011;2549;52.128;21.068;2023-05-29T10:29:38;3.50;;;1.53;;
5060;SDS011;2549;52.128;21.068;2023-05-29T10:34:56;3.37;;;1.53;;
5060;SDS011;2549;52.128;21.068;2023-05-29T10:37:52;1.87;;;1.47;;
5060;SDS011;2549;52.128;21.068;2023-05-29T10:40:24;4.33;;;1.70;;
5060;SDS011;2549;52.128;21.068;2023-05-29T10:42:52;5.20;;;2.10;;
5060;SDS011;2549;52.128;21.068;2023-05-29T10:50:40;2.50;;;1.60;;
5060;SDS011;2549;52.128;21.068;2023-05-29T10:53:15;4.43;;;1.70;;
5060;SDS011;2549;52.128;21.068;2023-05-29T10:55:44;21.13;;;1.97;;
5060;SDS011;2549;52.128;21.068;2023-05-29T10:58:12;4.30;;;2.07;;
5060;SDS011;2549;52.128;21.068;2023-05-29T11:00:45;3.20;;;1.80;;
5060;SDS011;2549;52.128;21.068;2023-05-29T11:03:20;4.77;;;1.50;;
5060;SDS011;2549;52.128;21.068;2023-05-29T11:06:01;4.60;;;2.13;;
5060;SDS011;2549;52.128;21.068;2023-05-29T11:08:33;3.13;;;1.97;;
5060;SDS011;2549;52.128;21.068;2023-05-29T11:11:15;7.10;;;2.20;;
5060;SDS011;2549;52.128;21.068;2023-05-29T11:13:55;15.00;;;2.70;;
5060;SDS011;2549;52.128;21.068;2023-05-29T11:18:59;8.90;;;1.67;;
5060;SDS011;2549;52.128;21.068;2023-05-29T11:23:58;2.90;;;1.63;;
5060;SDS011;2549;52.128;21.068;2023-05-29T11:26:33;4.00;;;1.90;;
5060;SDS011;2549;52.128;21.068;2023-05-29T11:29:02;3.83;;;1.90;;
5060;SDS011;2549;52.128;21.068;2023-05-29T11:31:37;5.23;;;1.93;;
5060;SDS011;2549;52.128;21.068;2023-05-29T11:34:06;3.80;;;1.30;;
5060;SDS011;2549;52.128;21.068;2023-05-29T11:36:38;4.10;;;1.60;;
5060;SDS011;2549;52.128;21.068;2023-05-29T11:39:05;6.23;;;1.73;;
5060;SDS011;2549;52.128;21.068;2023-05-29T11:41:32;8.80;;;1.83;;
5060;SDS011;2549;52.128;21.068;2023-05-29T11:44:00;3.37;;;1.77;;
5060;SDS011;2549;52.128;21.068;2023-05-29T11:46:28;3.40;;;2.00;;
5060;SDS011;2549;52.128;21.068;2023-05-29T11:48:59;2.30;;;1.80;;
5060;SDS011;2549;52.128;21.068;2023-05-29T11:51:26;3.90;;;1.83;;
5060;SDS011;2549;52.128;21.068;2023-05-29T11:53:53;3.37;;;1.70;;
5060;SDS011;2549;52.128;21.068;2023-05-29T11:56:27;2.13;;;1.70;;
5060;SDS011;2549;52.128;21.068;2023-05-29T11:58:57;7.40;;;1.80;;
5060;SDS011;2549;52.128;21.068;2023-05-29T12:01:26;3.83;;;1.87;;
5060;SDS011;2549;52.128;21.068;2023-05-29T12:03:54;2.83;;;2.53;;
5060;SDS011;2549;52.128;21.068;2023-05-29T12:06:34;12.20;;;2.33;;
5060;SDS011;2549;52.128;21.068;2023-05-29T12:09:03;4.83;;;1.80;;
5060;SDS011;2549;52.128;21.068;2023-05-29T12:11:31;12.90;;;2.07;;
5060;SDS011;2549;52.128;21.068;2023-05-29T12:14:01;2.40;;;2.07;;
5060;SDS011;2549;52.128;21.068;2023-05-29T12:16:28;2.40;;;1.70;;
5060;SDS011;2549;52.128;21.068;2023-05-29T12:19:00;2.77;;;1.53;;
5060;SDS011;2549;52.128;21.068;2023-05-29T12:21:27;5.00;;;2.33;;
5060;SDS011;2549;52.128;21.068;2023-05-29T12:23:54;7.37;;;2.00;;
5060;SDS011;2549;52.128;21.068;2023-05-29T12:26:35;4.13;;;2.17;;
5060;SDS011;2549;52.128;21.068;2023-05-29T12:29:03;10.73;;;2.83;;
5060;SDS011;2549;52.128;21.068;2023-05-29T12:31:31;7.80;;;2.83;;
5060;SDS011;2549;52.128;21.068;2023-05-29T12:34:12;8.07;;;2.33;;
5060;SDS011;2549;52.128;21.068;2023-05-29T12:36:43;4.03;;;1.87;;
5060;SDS011;2549;52.128;21.068;2023-05-29T12:39:10;8.23;;;2.30;;
5060;SDS011;2549;52.128;21.068;2023-05-29T12:41:38;4.43;;;2.73;;
5060;SDS011;2549;52.128;21.068;2023-05-29T12:44:07;3.00;;;2.20;;
5060;SDS011;2549;52.128;21.068;2023-05-29T12:46:35;5.10;;;2.50;;
5060;SDS011;2549;52.128;21.068;2023-05-29T12:49:24;3.53;;;2.40;;
5060;SDS011;2549;52.128;21.068;2023-05-29T12:51:52;6.80;;;2.50;;
5060;SDS011;2549;52.128;21.068;2023-05-29T12:54:19;7.87;;;2.07;;
5060;SDS011;2549;52.128;21.068;2023-05-29T12:56:47;9.73;;;1.90;;
5060;SDS011;2549;52.128;21.068;2023-05-29T12:59:16;6.93;;;2.40;;
5060;SDS011;2549;52.128;21.068;2023-05-29T13:01:43;18.67;;;3.60;;
5060;SDS011;2549;52.128;21.068;2023-05-29T13:04:10;4.17;;;2.07;;
5060;SDS011;2549;52.128;21.068;2023-05-29T13:06:39;7.47;;;3.00;;
5060;SDS011;2549;52.128;21.068;2023-05-29T13:09:06;13.83;;;2.30;;
5060;SDS011;2549;52.128;21.068;2023-05-29T13:11:34;5.33;;;2.10;;
5060;SDS011;2549;52.128;21.068;2023-05-29T13:14:03;7.03;;;2.23;;
5060;SDS011;2549;52.128;21.068;2023-05-29T13:16:30;5.10;;;1.70;;
5060;SDS011;2549;52.128;21.068;2023-05-29T13:18:58;6.90;;;2.10;;
5060;SDS011;2549;52.128;21.068;2023-05-29T13:21:24;10.50;;;2.47;;
5060;SDS011;2549;52.128;21.068;2023-05-29T13:23:52;4.50;;;2.30;;
5060;SDS011;2549;52.128;21.068;2023-05-29T13:26:18;4.47;;;2.40;;
5060;SDS011;2549;52.128;21.068;2023-05-29T13:28:45;9.93;;;1.90;;
5060;SDS011;2549;52.128;21.068;2023-05-29T13:31:12;8.30;;;2.27;;
5060;SDS011;2549;52.128;21.068;2023-05-29T13:33:39;7.00;;;2.57;;
5060;SDS011;2549;52.128;21.068;2023-05-29T13:36:06;4.87;;;2.70;;
5060;SDS011;2549;52.128;21.068;2023-05-29T13:38:33;4.30;;;2.00;;
5060;SDS011;2549;52.128;21.068;2023-05-29T13:41:00;5.90;;;2.17;;
5060;SDS011;2549;52.128;21.068;2023-05-29T13:43:27;3.17;;;1.57;;
5060;SDS011;2549;52.128;21.068;2023-05-29T13:46:09;9.90;;;2.77;;
5060;SDS011;2549;52.128;21.068;2023-05-29T13:48:37;3.20;;;1.90;;
5060;SDS011;2549;52.128;21.068;2023-05-29T13:51:04;5.90;;;2.60;;
5060;SDS011;2549;52.128;21.068;2023-05-29T13:53:32;7.83;;;2.10;;
5060;SDS011;2549;52.128;21.068;2023-05-29T13:55:59;2.00;;;1.80;;
5060;SDS011;2549;52.128;21.068;2023-05-29T13:58:25;9.90;;;2.30;;
5060;SDS011;2549;52.128;21.068;2023-05-29T14:00:52;3.80;;;2.50;;
5060;SDS011;2549;52.128;21.068;2023-05-29T14:03:19;2.83;;;1.40;;
5060;SDS011;2549;52.128;21.068;2023-05-29T14:05:48;8.90;;;2.17;;
5060;SDS011;2549;52.128;21.068;2023-05-29T14:08:15;10.33;;;2.03;;
5060;SDS011;2549;52.128;21.068;2023-05-29T14:10:41;8.63;;;1.73;;
5060;SDS011;2549;52.128;21.068;2023-05-29T14:13:08;5.27;;;1.70;;
5060;SDS011;2549;52.128;21.068;2023-05-29T14:15:36;10.37;;;2.20;;
5060;SDS011;2549;52.128;21.068;2023-05-29T14:18:06;4.47;;;1.73;;
5060;SDS011;2549;52.128;21.068;2023-05-29T14:20:34;6.80;;;1.93;;
5060;SDS011;2549;52.128;21.068;2023-05-29T14:23:01;3.43;;;2.13;;
5060;SDS011;2549;52.128;21.068;2023-05-29T14:25:28;2.27;;;1.90;;
5060;SDS011;2549;52.128;21.068;2023-05-29T14:27:55;3.97;;;1.57;;
5060;SDS011;2549;52.128;21.068;2023-05-29T14:30:22;4.07;;;1.40;;
5060;SDS011;2549;52.128;21.068;2023-05-29T14:32:49;7.00;;;2.50;;
5060;SDS011;2549;52.128;21.068;2023-05-29T14:35:16;6.10;;;2.43;;
5060;SDS011;2549;52.128;21.068;2023-05-29T14:37:43;4.87;;;2.20;;
5060;SDS011;2549;52.128;21.068;2023-05-29T14:40:10;7.13;;;1.60;;
5060;SDS011;2549;52.128;21.068;2023-05-29T14:42:37;5.33;;;2.10;;
5060;SDS011;2549;52.128;21.068;2023-05-29T14:45:04;5.30;;;1.50;;
5060;SDS011;2549;52.128;21.068;2023-05-29T14:47:31;3.47;;;1.50;;
5060;SDS011;2549;52.128;21.068;2023-05-29T14:49:58;5.73;;;1.67;;
5060;SDS011;2549;52.128;21.068;2023-05-29T14:52:25;4.00;;;1.97;;
5060;SDS011;2549;52.128;21.068;2023-05-29T14:54:52;1.90;;;1.73;;
5060;SDS011;2549;52.128;21.068;2023-05-29T14:57:19;2.93;;;1.60;;
5060;SDS011;2549;52.128;21.068;2023-05-29T14:59:46;10.10;;;2.30;;
5060;SDS011;2549;52.128;21.068;2023-05-29T15:02:13;3.00;;;1.97;;
5060;SDS011;2549;52.128;21.068;2023-05-29T15:04:40;3.47;;;1.90;;
5060;SDS011;2549;52.128;21.068;2023-05-29T15:07:07;4.57;;;2.03;;
5060;SDS011;2549;52.128;21.068;2023-05-29T15:09:34;4.13;;;1.77;;
5060;SDS011;2549;52.128;21.068;2023-05-29T15:12:00;2.10;;;1.70;;
5060;SDS011;2549;52.128;21.068;2023-05-29T15:14:27;1.97;;;1.50;;
5060;SDS011;2549;52.128;21.068;2023-05-29T15:16:54;2.90;;;2.00;;
5060;SDS011;2549;52.128;21.068;2023-05-29T15:19:22;6.40;;;1.70;;
5060;SDS011;2549;52.128;21.068;2023-05-29T15:21:49;1.80;;;1.70;;
5060;SDS011;2549;52.128;21.068;2023-05-29T15:24:16;1.93;;;1.80;;
5060;SDS011;2549;52.128;21.068;2023-05-29T15:26:43;3.37;;;1.73;;
5060;SDS011;2549;52.128;21.068;2023-05-29T15:29:10;5.90;;;1.77;;
5060;SDS011;2549;52.128;21.068;2023-05-29T15:31:37;3.63;;;1.90;;
5060;SDS011;2549;52.128;21.068;2023-05-29T15:34:04;2.20;;;1.67;;
5060;SDS011;2549;52.128;21.068;2023-05-29T15:36:31;2.03;;;1.70;;
5060;SDS011;2549;52.128;21.068;2023-05-29T15:38:57;5.70;;;2.00;;
5060;SDS011;2549;52.128;21.068;2023-05-29T15:41:24;5.80;;;1.67;;